Time,TemperatureF,DewpointF,PressureIn,WindDirection,WindDirectionDegrees,WindSpeedMPH,WindSpeedGustMPH,Humidity,HourlyPrecipIn,Conditions,Clouds,dailyrainin,SoftwareType,DateUTC
2013-03-18 00:12:00,41.7,28.0,30.09,WNW,292,0.0,5.0,58,0.00,,,0.57,weatherlink.com 1.10,2013-03-18 07:12:00,
2013-03-18 00:27:00,41.7,28.0,30.08,West,262,4.0,7.0,58,0.00,,,0.57,weatherlink.com 1.10,2013-03-18 07:27:00,
2013-03-18 00:42:00,42.1,29.0,30.08,SSW,192,2.0,9.0,59,0.00,,,0.57,weatherlink.com 1.10,2013-03-18 07:42:00,
2013-03-18 00:57:00,42.2,29.0,30.08,WSW,248,2.0,7.0,60,0.00,,,0.57,weatherlink.com 1.10,2013-03-18 07:57:00,
2013-03-18 01:12:00,42.4,30.0,30.07,NW,309,5.0,6.0,61,0.00,,,0.57,weatherlink.com 1.10,2013-03-18 08:12:00,
2013-03-18 01:27:00,42.7,30.0,30.07,WSW,256,5.0,7.0,62,0.00,,,0.00,weatherlink.com 1.10,2013-03-18 08:27:00,
2013-03-18 01:42:00,42.9,30.0,30.06,East,82,4.0,6.0,60,0.00,,,0.00,weatherlink.com 1.10,2013-03-18 08:42:00,
2013-03-18 01:57:00,42.1,26.0,30.06,North,4,3.0,7.0,54,0.00,,,0.00,weatherlink.com 1.10,2013-03-18 08:57:00,
2013-03-18 02:12:00,41.1,24.0,30.05,East,82,5.0,10.0,52,0.00,,,0.00,weatherlink.com 1.10,2013-03-18 09:12:00,
2013-03-18 02:27:00,40.4,23.0,30.05,SE,136,1.0,9.0,50,0.00,,,0.00,weatherlink.com 1.10,2013-03-18 09:27:00,
2013-03-18 02:42:00,40.0,22.0,30.05,East,82,2.0,8.0,48,0.00,,,0.00,weatherlink.com 1.10,2013-03-18 09:42:00,
2013-03-18 02:57:00,39.8,21.0,30.04,ENE,65,0.0,7.0,47,0.00,,,0.00,weatherlink.com 1.10,2013-03-18 09:57:00,
2013-03-18 03:12:00,39.8,20.0,30.05,East,92,1.0,7.0,46,0.00,,,0.00,weatherlink.com 1.10,2013-03-18 10:12:00,
2013-03-18 03:27:00,39.6,20.0,30.05,NE,53,1.0,6.0,45,0.00,,,0.00,weatherlink.com 1.10,2013-03-18 10:27:00,
2013-03-18 03:42:00,-999.0,-99.9,30.05,ENE,71,0.0,6.0,44,0.00,,,0.00,weatherlink.com 1.10,2013-03-18 10:42:00,
2013-03-18 03:57:00,-999.0,-99.9,30.04,ENE,75,0.0,3.0,44,0.00,,,0.00,weatherlink.com 1.10,2013-03-18 10:57:00,
2013-03-18 04:12:00,-999.0,-99.9,30.05,ENE,75,2.0,2.0,44,0.00,,,0.00,weatherlink.com 1.10,2013-03-18 11:12:00,
2013-03-18 04:27:00,-999.0,-99.9,30.04,ENE,73,3.0,9.0,44,0.01,,,0.01,weatherlink.com 1.10,2013-03-18 11:27:00,
2013-03-18 04:42:00,-999.0,-99.9,30.04,East,82,2.0,7.0,-999,0.01,,,0.01,weatherlink.com 1.10,2013-03-18 11:42:00,
2013-03-18 04:57:00,-999.0,-99.9,30.04,East,96,2.0,4.0,-999,0.01,,,0.01,weatherlink.com 1.10,2013-03-18 11:57:00,
2013-03-18 05:13:00,-999.0,-99.9,30.03,SSE,154,1.0,3.0,-999,0.01,,,0.01,weatherlink.com 1.10,2013-03-18 12:13:00,
2013-03-18 05:28:00,-999.0,-99.9,30.02,East,82,1.0,6.0,-999,0.00,,,0.01,weatherlink.com 1.10,2013-03-18 12:28:00,
2013-03-18 05:43:00,-999.0,-99.9,30.01,ENE,78,0.0,2.0,-999,0.00,,,0.01,weatherlink.com 1.10,2013-03-18 12:43:00,
2013-03-18 05:58:00,-999.0,-99.9,30.02,SW,215,0.0,3.0,-999,0.00,,,0.01,weatherlink.com 1.10,2013-03-18 12:58:00,
2013-03-18 06:13:00,-999.0,-99.9,30.02,SW,232,1.0,7.0,-999,0.00,,,0.01,weatherlink.com 1.10,2013-03-18 13:13:00,
2013-03-18 06:28:00,-999.0,-99.9,30.02,WNW,289,2.0,4.0,-999,0.00,,,0.01,weatherlink.com 1.10,2013-03-18 13:28:00,
2013-03-18 06:43:00,-999.0,-99.9,30.02,North,358,0.0,6.0,-999,0.00,,,0.01,weatherlink.com 1.10,2013-03-18 13:43:00,
2013-03-18 06:58:00,-999.0,-99.9,30.03,SE,127,0.0,7.0,-999,0.01,,,0.02,weatherlink.com 1.10,2013-03-18 13:58:00,
2013-03-18 07:13:00,-999.0,-99.9,30.04,South,173,3.0,7.0,-999,0.01,,,0.02,weatherlink.com 1.10,2013-03-18 14:13:00,
2013-03-18 07:28:00,-999.0,-99.9,30.04,ESE,115,3.0,6.0,-999,0.01,,,0.02,weatherlink.com 1.10,2013-03-18 14:28:00,
2013-03-18 07:43:00,-999.0,-99.9,30.05,SSE,159,1.0,6.0,-999,0.01,,,0.02,weatherlink.com 1.10,2013-03-18 14:43:00,
2013-03-18 07:58:00,-999.0,-99.9,30.06,NW,321,1.0,12.0,-999,0.00,,,0.02,weatherlink.com 1.10,2013-03-18 14:58:00,
2013-03-18 08:13:00,-999.0,-99.9,30.07,West,260,4.0,13.0,-999,0.00,,,0.02,weatherlink.com 1.10,2013-03-18 15:13:00,
2013-03-18 08:28:00,-999.0,-99.9,30.08,WSW,248,6.0,12.0,49,0.00,,,0.02,weatherlink.com 1.10,2013-03-18 15:28:00,
2013-03-18 08:44:00,-999.0,-99.9,30.09,WSW,258,8.0,13.0,51,0.00,,,0.02,weatherlink.com 1.10,2013-03-18 15:44:00,
2013-03-18 08:59:00,-999.0,-99.9,30.09,WSW,248,12.0,14.0,56,0.00,,,0.02,weatherlink.com 1.10,2013-03-18 15:59:00,
2013-03-18 09:14:00,42.9,29.0,30.09,WSW,244,10.0,17.0,59,0.00,,,0.02,weatherlink.com 1.10,2013-03-18 16:14:00,
2013-03-18 09:29:00,42.9,30.0,30.10,WSW,242,9.0,12.0,60,0.00,,,0.02,weatherlink.com 1.10,2013-03-18 16:29:00,
2013-03-18 09:44:00,43.1,30.0,30.10,WSW,249,7.0,10.0,60,0.00,,,0.02,weatherlink.com 1.10,2013-03-18 16:44:00,
2013-03-18 09:59:00,43.0,31.0,30.11,SW,225,7.0,10.0,62,0.00,,,0.02,weatherlink.com 1.10,2013-03-18 16:59:00,
2013-03-18 10:14:00,43.6,32.0,30.11,WSW,253,7.0,14.0,64,0.00,,,0.02,weatherlink.com 1.10,2013-03-18 17:14:00,
2013-03-18 10:29:00,43.7,32.0,30.11,WSW,239,11.0,18.0,64,0.00,,,0.02,weatherlink.com 1.10,2013-03-18 17:29:00,
2013-03-18 10:44:00,43.9,33.0,30.11,WSW,244,8.0,14.0,65,0.00,,,0.02,weatherlink.com 1.10,2013-03-18 17:44:00,
2013-03-18 10:59:00,44.1,33.0,30.12,SW,235,6.0,12.0,65,0.00,,,0.02,weatherlink.com 1.10,2013-03-18 17:59:00,
2013-03-18 11:14:00,44.4,33.0,30.12,WSW,253,14.0,17.0,65,0.00,,,0.02,weatherlink.com 1.10,2013-03-18 18:14:00,
2013-03-18 11:29:00,44.6,33.0,30.12,WSW,248,11.0,17.0,65,0.00,,,0.02,weatherlink.com 1.10,2013-03-18 18:29:00,
2013-03-18 11:44:00,44.8,33.0,30.13,WSW,258,10.0,13.0,64,0.00,,,0.02,weatherlink.com 1.10,2013-03-18 18:44:00,
2013-03-18 11:59:00,45.0,34.0,30.13,WSW,250,8.0,12.0,65,0.00,,,0.02,weatherlink.com 1.10,2013-03-18 18:59:00,
2013-03-18 12:14:00,45.0,33.0,30.13,WSW,250,9.0,11.0,64,0.00,,,0.02,weatherlink.com 1.10,2013-03-18 19:14:00,
2013-03-18 12:29:00,45.1,34.0,30.14,WSW,241,6.0,10.0,65,0.00,,,0.02,weatherlink.com 1.10,2013-03-18 19:29:00,
2013-03-18 12:44:00,45.4,34.0,30.14,WSW,242,4.0,7.0,64,0.00,,,0.02,weatherlink.com 1.10,2013-03-18 19:44:00,
2013-03-18 12:59:00,45.5,33.0,30.14,SSW,206,0.0,4.0,63,0.00,,,0.02,weatherlink.com 1.10,2013-03-18 19:59:00,
2013-03-18 13:14:00,46.0,34.0,30.14,WSW,243,3.0,4.0,63,0.00,,,0.02,weatherlink.com 1.10,2013-03-18 20:14:00,
2013-03-18 13:29:00,46.0,33.0,30.15,WSW,252,4.0,4.0,62,0.00,,,0.02,weatherlink.com 1.10,2013-03-18 20:29:00,
2013-03-18 13:44:00,46.1,33.0,30.15,WSW,237,1.0,4.0,61,0.00,,,0.02,weatherlink.com 1.10,2013-03-18 20:44:00,
2013-03-18 13:59:00,47.9,33.0,30.15,SSW,208,0.0,1.0,57,0.00,,,0.02,weatherlink.com 1.10,2013-03-18 20:59:00,
2013-03-18 14:14:00,47.9,33.0,30.15,SW,229,0.0,3.0,56,0.00,,,0.02,weatherlink.com 1.10,2013-03-18 21:14:00,
2013-03-18 14:29:00,46.3,33.0,30.15,SW,230,0.0,0.0,60,0.00,,,0.02,weatherlink.com 1.10,2013-03-18 21:29:00,
2013-03-18 14:44:00,46.3,32.0,30.15,SW,230,0.0,0.0,59,0.00,,,0.02,weatherlink.com 1.10,2013-03-18 21:44:00,
2013-03-18 14:59:00,48.8,32.0,30.15,SW,230,2.0,2.0,53,0.00,,,0.02,weatherlink.com 1.10,2013-03-18 21:59:00,
2013-03-18 15:14:00,47.4,33.0,30.15,SW,230,0.0,2.0,58,0.00,,,0.02,weatherlink.com 1.10,2013-03-18 22:14:00,
2013-03-18 15:29:00,47.4,34.0,30.16,SW,230,0.0,0.0,60,0.00,,,0.02,weatherlink.com 1.10,2013-03-18 22:29:00,
2013-03-18 15:44:00,47.7,32.0,30.16,ESE,104,4.0,6.0,55,0.00,,,0.02,weatherlink.com 1.10,2013-03-18 22:44:00,
2013-03-18 15:59:00,47.0,34.0,30.16,ENE,75,6.0,6.0,60,0.00,,,0.02,weatherlink.com 1.10,2013-03-18 22:59:00,
2013-03-18 16:14:00,47.1,35.0,30.16,SE,124,1.0,7.0,62,0.00,,,0.02,weatherlink.com 1.10,2013-03-18 23:14:00,
2013-03-18 16:29:00,47.5,35.0,30.16,ESE,119,0.0,4.0,63,0.00,,,0.02,weatherlink.com 1.10,2013-03-18 23:29:00,
2013-03-18 16:44:00,47.7,35.0,30.16,ESE,119,0.0,1.0,61,0.00,,,0.02,weatherlink.com 1.10,2013-03-18 23:44:00,
2013-03-18 16:59:00,47.7,36.0,30.16,WSW,245,4.0,5.0,63,0.00,,,0.02,weatherlink.com 1.10,2013-03-18 23:59:00,
2013-03-18 17:14:00,47.3,35.0,30.16,WSW,244,3.0,5.0,63,0.00,,,0.02,weatherlink.com 1.10,2013-03-19 00:14:00,
2013-03-18 17:29:00,46.9,35.0,30.16,WSW,244,0.0,0.0,64,0.00,,,0.02,weatherlink.com 1.10,2013-03-19 00:29:00,
2013-03-18 17:44:00,47.0,35.0,30.17,WSW,244,2.0,4.0,64,0.00,,,0.02,weatherlink.com 1.10,2013-03-19 00:44:00,
2013-03-18 18:14:00,46.3,35.0,30.17,WSW,243,0.0,2.0,65,0.00,,,0.02,weatherlink.com 1.10,2013-03-19 01:14:00,
2013-03-18 18:29:00,46.8,35.0,30.16,WSW,244,0.0,2.0,64,0.00,,,0.02,weatherlink.com 1.10,2013-03-19 01:29:00,
2013-03-18 18:44:00,47.0,35.0,30.16,SSW,211,0.0,2.0,64,0.00,,,0.02,weatherlink.com 1.10,2013-03-19 01:44:00,
2013-03-18 18:59:00,45.1,34.0,30.17,SSW,211,0.0,3.0,65,0.00,,,0.02,weatherlink.com 1.10,2013-03-19 01:59:00,
2013-03-18 19:14:00,45.0,34.0,30.17,South,173,0.0,11.0,65,0.00,,,0.02,weatherlink.com 1.10,2013-03-19 02:14:00,
2013-03-18 19:29:00,43.1,32.0,30.18,South,173,0.0,2.0,65,0.00,,,0.02,weatherlink.com 1.10,2013-03-19 02:29:00,
2013-03-18 19:46:00,42.1,31.0,30.18,South,173,0.0,2.0,65,0.00,,,0.02,weatherlink.com 1.10,2013-03-19 02:46:00,
2013-03-18 19:59:00,42.0,31.0,30.18,South,171,1.0,2.0,65,0.00,,,0.02,weatherlink.com 1.10,2013-03-19 02:59:00,
2013-03-18 20:15:00,41.6,31.0,30.18,South,171,0.0,2.0,65,0.00,,,0.02,weatherlink.com 1.10,2013-03-19 03:15:00,
2013-03-18 20:30:00,41.1,30.0,30.19,SSE,159,0.0,3.0,66,0.00,,,0.02,weatherlink.com 1.10,2013-03-19 03:30:00,
2013-03-18 20:45:00,40.4,29.0,30.19,SSE,158,2.0,3.0,65,0.00,,,0.02,weatherlink.com 1.10,2013-03-19 03:45:00,
2013-03-18 21:00:00,39.8,28.0,30.19,SSE,158,3.0,3.0,64,0.00,,,0.02,weatherlink.com 1.10,2013-03-19 04:00:00,
2013-03-18 21:15:00,39.3,28.0,30.20,SSE,156,2.0,3.0,63,0.00,,,0.02,weatherlink.com 1.10,2013-03-19 04:15:00,
2013-03-18 21:30:00,38.7,26.0,30.20,SSE,156,1.0,2.0,61,0.00,,,0.02,weatherlink.com 1.10,2013-03-19 04:30:00,
2013-03-18 21:45:00,38.6,25.0,30.20,SSE,156,1.0,2.0,58,0.00,,,0.02,weatherlink.com 1.10,2013-03-19 04:45:00,
2013-03-18 22:00:00,37.8,23.0,30.20,SSE,156,0.0,2.0,56,0.00,,,0.02,weatherlink.com 1.10,2013-03-19 05:00:00,
2013-03-18 22:15:00,37.5,22.0,30.20,SSE,156,1.0,2.0,53,0.00,,,0.02,weatherlink.com 1.10,2013-03-19 05:15:00,
2013-03-18 22:30:00,36.8,21.0,30.20,SSE,156,1.0,2.0,53,0.00,,,0.02,weatherlink.com 1.10,2013-03-19 05:30:00,
2013-03-18 22:45:00,36.1,19.0,30.20,SSE,156,0.0,2.0,51,0.00,,,0.02,weatherlink.com 1.10,2013-03-19 05:45:00,
2013-03-18 23:00:00,35.9,18.0,30.20,SSE,156,0.0,0.0,49,0.00,,,0.02,weatherlink.com 1.10,2013-03-19 06:00:00,
2013-03-18 23:15:00,35.5,17.0,30.20,SSE,155,1.0,1.0,48,0.00,,,0.02,weatherlink.com 1.10,2013-03-19 06:15:00,
2013-03-18 23:30:00,35.1,17.0,30.20,SSE,156,0.0,2.0,47,0.00,,,0.02,weatherlink.com 1.10,2013-03-19 06:30:00,
2013-03-18 23:45:00,35.2,16.0,30.20,SSE,156,0.0,2.0,46,0.00,,,0.02,weatherlink.com 1.10,2013-03-19 06:45:00,